createdAt,value
2019-03-22T00:02:00.102Z,5.20
2019-03-22T00:04:30.489Z,5.20
2019-03-22T00:07:00.644Z,5.10
2019-03-22T00:09:30.817Z,5.10
2019-03-22T00:12:00.983Z,5.00
2019-03-22T00:14:31.170Z,5.00
2019-03-22T00:17:01.335Z,5.00
2019-03-22T00:19:31.508Z,4.90
2019-03-22T00:22:01.746Z,5.00
2019-03-22T00:24:31.926Z,5.00
2019-03-22T00:27:02.198Z,5.00
2019-03-22T00:29:32.368Z,4.90
2019-03-22T00:32:04.454Z,4.80
2019-03-22T00:34:34.349Z,4.80
2019-03-22T00:37:04.507Z,4.80
2019-03-22T00:39:34.687Z,4.90
2019-03-22T00:42:05.082Z,4.90
2019-03-22T00:44:35.270Z,4.80
2019-03-22T00:47:05.455Z,4.80
2019-03-22T00:49:35.729Z,4.80
2019-03-22T00:52:05.901Z,4.80
2019-03-22T00:54:36.068Z,4.70
2019-03-22T00:57:06.239Z,4.60
2019-03-22T00:59:36.527Z,4.50
2019-03-22T01:02:06.685Z,4.50
2019-03-22T01:04:36.961Z,4.50
2019-03-22T01:07:07.116Z,4.50
2019-03-22T01:09:37.373Z,4.60
2019-03-22T01:12:07.724Z,4.60
2019-03-22T01:14:37.964Z,4.70
2019-03-22T01:17:08.228Z,4.70
2019-03-22T01:19:38.403Z,4.60
2019-03-22T01:22:08.567Z,4.40
2019-03-22T01:24:38.882Z,4.30
2019-03-22T01:27:09.064Z,4.30
2019-03-22T01:29:39.265Z,4.30
2019-03-22T01:32:09.418Z,4.30
2019-03-22T01:34:40.108Z,4.20
2019-03-22T01:37:10.476Z,4.20
2019-03-22T01:39:40.656Z,4.20
2019-03-22T01:42:10.823Z,4.20
2019-03-22T01:44:42.547Z,4.20
2019-03-22T01:47:12.911Z,4.10
2019-03-22T01:49:43.192Z,4.00
2019-03-22T01:52:13.959Z,4.10
2019-03-22T01:54:44.152Z,4.00
2019-03-22T01:57:14.307Z,4.00
2019-03-22T01:59:44.487Z,4.10
2019-03-22T02:02:14.766Z,4.00
2019-03-22T02:04:45.029Z,3.90
2019-03-22T02:07:16.017Z,3.90
2019-03-22T02:09:46.163Z,3.90
2019-03-22T02:12:16.444Z,3.80
2019-03-22T02:14:46.604Z,3.80
2019-03-22T02:17:16.784Z,3.80
2019-03-22T02:19:47.512Z,3.70
2019-03-22T02:22:17.891Z,3.80
2019-03-22T02:24:48.044Z,3.80
2019-03-22T02:27:18.923Z,3.80
2019-03-22T02:29:49.080Z,3.80
2019-03-22T02:32:19.257Z,3.80
2019-03-22T02:34:49.412Z,3.80
2019-03-22T02:37:19.589Z,3.80
2019-03-22T02:39:49.957Z,3.70
2019-03-22T02:42:20.149Z,3.70
2019-03-22T02:44:50.399Z,3.60
2019-03-22T02:47:21.292Z,3.70
2019-03-22T02:49:51.449Z,3.70
2019-03-22T02:52:21.838Z,3.80
2019-03-22T02:54:52.092Z,3.90
2019-03-22T02:57:22.468Z,4.00
2019-03-22T02:59:52.946Z,4.00
2019-03-22T03:02:23.675Z,3.90
2019-03-22T03:04:54.002Z,3.90
2019-03-22T03:07:24.448Z,3.90
2019-03-22T03:09:54.609Z,3.90
2019-03-22T03:12:24.792Z,3.90
2019-03-22T03:14:55.051Z,3.80
2019-03-22T03:17:25.335Z,3.80
2019-03-22T03:19:55.594Z,3.80
2019-03-22T03:22:28.696Z,3.80
2019-03-22T03:24:58.857Z,3.70
2019-03-22T03:27:30.544Z,3.70
2019-03-22T03:30:00.980Z,3.70
2019-03-22T03:32:31.349Z,3.70
2019-03-22T03:35:01.624Z,3.60
2019-03-22T03:37:31.781Z,3.60
2019-03-22T03:40:02.133Z,3.60
2019-03-22T03:42:32.634Z,3.70
2019-03-22T03:45:02.402Z,3.70
2019-03-22T03:47:32.564Z,3.80
2019-03-22T03:50:03.192Z,3.80
2019-03-22T03:52:33.472Z,3.80
2019-03-22T03:55:05.281Z,3.80
2019-03-22T03:57:35.466Z,3.80
2019-03-22T04:00:07.553Z,3.90
2019-03-22T04:02:37.733Z,3.90
2019-03-22T04:05:08.942Z,3.90
2019-03-22T04:07:39.129Z,4.00
2019-03-22T04:10:09.429Z,4.00
2019-03-22T04:12:39.796Z,4.10
2019-03-22T04:15:10.396Z,4.20
2019-03-22T04:17:40.673Z,4.30
2019-03-22T04:20:11.169Z,4.30
2019-03-22T04:22:41.359Z,4.40
2019-03-22T04:25:11.504Z,4.40
2019-03-22T04:27:41.801Z,4.40
2019-03-22T04:30:12.407Z,4.40
2019-03-22T04:32:42.565Z,4.30
2019-03-22T04:35:12.784Z,4.40
2019-03-22T04:37:43.233Z,4.40
2019-03-22T04:40:27.663Z,4.40
2019-03-22T04:42:59.072Z,4.50
2019-03-22T04:45:31.574Z,4.40
2019-03-22T04:48:08.948Z,4.40
2019-03-22T04:50:41.845Z,4.40
2019-03-22T04:53:15.172Z,4.30
2019-03-22T04:55:48.238Z,4.50
2019-03-22T04:58:19.552Z,4.60
2019-03-22T05:00:51.157Z,4.60
2019-03-22T05:03:22.463Z,4.70
2019-03-22T05:05:54.456Z,4.80
2019-03-22T05:08:27.674Z,4.80
2019-03-22T05:10:59.765Z,4.80
2019-03-22T05:13:31.581Z,4.90
2019-03-22T05:16:02.567Z,4.90
2019-03-22T05:18:33.689Z,5.00
2019-03-22T05:21:04.680Z,5.00
2019-03-22T05:23:35.504Z,5.10
2019-03-22T05:26:06.196Z,5.20
2019-03-22T05:28:36.717Z,5.30
2019-03-22T05:31:17.135Z,5.30
2019-03-22T05:33:47.513Z,5.30
2019-03-22T05:36:17.873Z,5.30
2019-03-22T05:38:48.153Z,5.20
2019-03-22T05:41:18.304Z,5.10
2019-03-22T05:43:48.492Z,5.00
2019-03-22T05:46:18.743Z,5.00
2019-03-22T05:48:48.923Z,5.00
2019-03-22T05:51:19.072Z,5.00
2019-03-22T05:53:49.249Z,5.10
2019-03-22T05:56:19.399Z,5.00
2019-03-22T05:58:49.676Z,5.10
2019-03-22T06:01:19.837Z,5.20
2019-03-22T06:03:50.117Z,5.20
2019-03-22T06:06:20.348Z,5.30
2019-03-22T06:08:50.678Z,5.30
2019-03-22T06:11:21.246Z,5.40
2019-03-22T06:13:51.417Z,5.50
2019-03-22T06:16:21.576Z,5.60
2019-03-22T06:18:51.882Z,5.80
2019-03-22T06:21:23.331Z,6.00
2019-03-22T06:23:53.695Z,6.20
2019-03-22T06:26:23.952Z,6.50
2019-03-22T06:28:54.145Z,6.70
2019-03-22T06:31:24.419Z,6.80
2019-03-22T06:33:54.578Z,6.90
2019-03-22T06:36:24.876Z,7.00
2019-03-22T06:38:55.038Z,7.10
2019-03-22T06:41:26.725Z,7.30
2019-03-22T06:43:56.979Z,7.50
2019-03-22T06:46:27.279Z,7.60
2019-03-22T06:48:57.431Z,7.60
2019-03-22T06:51:27.720Z,7.80
2019-03-22T06:53:58.092Z,7.90
2019-03-22T06:56:28.475Z,8.00
2019-03-22T06:59:00.505Z,8.20
2019-03-22T07:01:30.812Z,8.30
2019-03-22T07:04:01.080Z,8.40
2019-03-22T07:06:31.256Z,8.50
2019-03-22T07:09:01.707Z,8.60
2019-03-22T07:11:32.093Z,8.70
2019-03-22T07:14:02.424Z,8.70
2019-03-22T07:16:32.804Z,8.80
2019-03-22T07:19:02.961Z,8.90
2019-03-22T07:21:33.136Z,8.90
2019-03-22T07:24:22.836Z,9.00
2019-03-22T07:26:53.026Z,9.10
2019-03-22T07:29:23.184Z,9.10
2019-03-22T07:31:53.379Z,9.10
2019-03-22T07:34:23.628Z,9.20
2019-03-22T07:36:53.908Z,9.20
2019-03-22T07:39:24.868Z,9.10
2019-03-22T07:41:55.323Z,9.20
2019-03-22T07:44:25.484Z,9.20
2019-03-22T07:46:55.807Z,9.30
2019-03-22T07:49:26.716Z,9.40
2019-03-22T07:51:57.094Z,9.50
2019-03-22T07:54:27.460Z,9.60
2019-03-22T07:56:57.746Z,9.60
2019-03-22T07:59:29.503Z,9.60
2019-03-22T08:01:59.852Z,9.70
2019-03-22T08:04:30.008Z,9.80
2019-03-22T08:07:01.303Z,9.90
2019-03-22T08:09:31.768Z,10.00
2019-03-22T08:12:02.134Z,10.00
2019-03-22T08:14:32.370Z,10.10
2019-03-22T08:17:02.638Z,10.20
2019-03-22T08:19:32.949Z,10.20
2019-03-22T08:22:03.419Z,10.20
2019-03-22T08:24:33.679Z,10.20
2019-03-22T08:27:04.109Z,10.30
2019-03-22T08:29:34.464Z,10.40
2019-03-22T08:32:04.649Z,10.40
2019-03-22T08:34:34.980Z,10.40
2019-03-22T08:37:05.401Z,10.50
2019-03-22T08:39:35.729Z,10.50
2019-03-22T08:42:06.188Z,10.60
2019-03-22T08:44:36.457Z,10.70
2019-03-22T08:47:06.918Z,10.80
2019-03-22T08:49:37.234Z,10.90
2019-03-22T08:52:08.368Z,10.90
2019-03-22T08:54:40.203Z,11.00
2019-03-22T08:57:10.437Z,11.00
2019-03-22T08:59:40.679Z,11.20
2019-03-22T09:02:10.966Z,11.20
2019-03-22T09:04:41.175Z,11.30
2019-03-22T09:07:11.316Z,11.40
2019-03-22T09:09:42.047Z,11.50
2019-03-22T09:12:12.291Z,11.50
2019-03-22T09:14:42.489Z,11.60
2019-03-22T09:17:13.145Z,11.50
2019-03-22T09:19:43.334Z,11.60
2019-03-22T09:22:13.508Z,11.70
2019-03-22T09:24:43.887Z,11.80
2019-03-22T09:27:14.073Z,11.90
2019-03-22T09:29:47.435Z,11.90
2019-03-22T09:32:17.549Z,12.10
2019-03-22T09:34:47.697Z,12.10
2019-03-22T09:37:18.093Z,12.20
2019-03-22T09:39:48.425Z,12.30
2019-03-22T09:42:18.763Z,12.30
2019-03-22T09:44:49.329Z,12.40
2019-03-22T09:47:19.606Z,12.50
2019-03-22T09:49:51.363Z,12.60
2019-03-22T09:52:21.811Z,12.60
2019-03-22T09:54:51.986Z,12.70
2019-03-22T09:57:22.180Z,12.80
2019-03-22T09:59:52.337Z,12.90
2019-03-22T10:02:22.647Z,12.80
2019-03-22T10:04:52.822Z,12.90
2019-03-22T10:07:23.968Z,12.90
2019-03-22T10:09:54.116Z,13.00
2019-03-22T10:12:25.578Z,13.00
2019-03-22T10:14:56.364Z,13.10
2019-03-22T10:17:26.665Z,13.20
2019-03-22T10:19:56.807Z,13.20
2019-03-22T10:22:27.105Z,13.10
2019-03-22T10:24:57.270Z,13.20
2019-03-22T10:27:27.446Z,13.30
2019-03-22T10:29:57.638Z,13.30
2019-03-22T10:32:28.099Z,13.30
2019-03-22T10:34:58.309Z,13.50
2019-03-22T10:37:28.562Z,13.60
2019-03-22T10:39:58.981Z,13.50
2019-03-22T10:42:29.522Z,13.50
2019-03-22T10:44:59.873Z,13.50
2019-03-22T10:47:30.886Z,13.60
2019-03-22T10:50:01.203Z,13.70
2019-03-22T10:52:31.469Z,13.70
2019-03-22T10:55:17.388Z,13.80
2019-03-22T10:57:33.609Z,13.80
2019-03-22T11:00:10.229Z,13.90
2019-03-22T11:02:40.392Z,14.00
2019-03-22T11:05:11.113Z,14.00
2019-03-22T11:07:41.263Z,14.00
2019-03-22T11:10:13.803Z,14.00
2019-03-22T11:12:43.916Z,14.00
2019-03-22T11:15:14.544Z,14.10
2019-03-22T11:17:44.898Z,14.10
2019-03-22T11:20:18.373Z,14.30
2019-03-22T11:22:48.550Z,14.40
2019-03-22T11:25:18.833Z,14.40
2019-03-22T11:27:49.196Z,14.40
2019-03-22T11:30:19.716Z,14.50
2019-03-22T11:32:49.950Z,14.50
2019-03-22T11:35:20.412Z,14.50
2019-03-22T11:37:50.686Z,14.60
2019-03-22T11:40:20.993Z,14.70
2019-03-22T11:42:51.563Z,14.70
2019-03-22T11:45:24.591Z,14.80
2019-03-22T11:47:54.946Z,14.90
2019-03-22T11:50:25.208Z,14.90
2019-03-22T11:52:55.853Z,14.90
2019-03-22T11:55:26.453Z,15.00
2019-03-22T11:57:56.879Z,15.10
2019-03-22T12:00:28.310Z,15.10
2019-03-22T12:02:58.480Z,15.10
2019-03-22T12:05:28.815Z,15.20
2019-03-22T12:07:59.159Z,15.20
2019-03-22T12:10:29.587Z,15.30
2019-03-22T12:12:59.757Z,15.40
2019-03-22T12:15:29.997Z,15.40
2019-03-22T12:18:00.169Z,15.40
2019-03-22T12:20:30.383Z,15.50
2019-03-22T12:23:00.565Z,15.50
2019-03-22T12:25:30.923Z,15.70
2019-03-22T12:28:01.288Z,15.60
2019-03-22T12:30:31.652Z,15.70
2019-03-22T12:33:01.892Z,15.70
2019-03-22T12:35:32.184Z,15.70
2019-03-22T12:38:02.423Z,15.70
2019-03-22T12:40:32.600Z,15.90
2019-03-22T12:43:04.129Z,15.90
2019-03-22T12:45:36.076Z,15.90
2019-03-22T12:48:06.408Z,16.00
2019-03-22T12:50:36.808Z,16.00
2019-03-22T12:53:07.086Z,16.00
2019-03-22T12:55:37.680Z,16.00
2019-03-22T12:58:07.956Z,16.10
2019-03-22T13:00:38.352Z,16.20
2019-03-22T13:03:08.609Z,16.20
2019-03-22T13:05:38.967Z,16.20
2019-03-22T13:08:09.345Z,16.30
2019-03-22T13:10:40.257Z,16.30
2019-03-22T13:13:10.439Z,16.30
2019-03-22T13:15:41.106Z,16.20
2019-03-22T13:18:11.600Z,16.20
2019-03-22T13:20:41.780Z,16.20
2019-03-22T13:23:12.050Z,16.20
2019-03-22T13:25:42.240Z,16.30
2019-03-22T13:28:13.007Z,16.40
2019-03-22T13:30:43.644Z,16.40
2019-03-22T13:33:13.900Z,16.40
2019-03-22T13:35:44.270Z,16.40
2019-03-22T13:38:14.540Z,16.40
2019-03-22T13:40:44.833Z,16.40
2019-03-22T13:43:15.610Z,16.40
2019-03-22T13:45:46.135Z,16.40
2019-03-22T13:48:16.290Z,16.50
2019-03-22T13:50:46.570Z,16.50
2019-03-22T13:53:16.827Z,16.50
2019-03-22T13:55:47.106Z,16.60
2019-03-22T13:58:17.334Z,16.60
2019-03-22T14:00:47.816Z,16.60
2019-03-22T14:03:17.975Z,16.60
2019-03-22T14:05:48.155Z,16.70
2019-03-22T14:08:18.316Z,16.70
2019-03-22T14:10:48.739Z,16.80
2019-03-22T14:13:18.907Z,16.90
2019-03-22T14:15:49.107Z,16.90
2019-03-22T14:18:19.580Z,16.90
2019-03-22T14:20:49.889Z,16.90
2019-03-22T14:23:20.046Z,16.90
2019-03-22T14:25:50.353Z,17.00
2019-03-22T14:28:20.512Z,17.00
2019-03-22T14:30:50.896Z,17.00
2019-03-22T14:33:21.082Z,17.00
2019-03-22T14:35:51.344Z,17.10
2019-03-22T14:38:21.801Z,17.00
2019-03-22T14:40:52.168Z,17.10
2019-03-22T14:43:22.447Z,17.10
2019-03-22T14:46:03.803Z,17.00
2019-03-22T14:48:34.012Z,17.10
2019-03-22T14:51:04.212Z,17.10
2019-03-22T14:53:34.400Z,17.10
2019-03-22T14:56:05.402Z,17.10
2019-03-22T14:58:36.003Z,17.10
2019-03-22T15:01:06.708Z,17.10
2019-03-22T15:03:37.251Z,17.10
2019-03-22T15:06:07.468Z,17.10
2019-03-22T15:08:37.680Z,17.10
2019-03-22T15:11:07.860Z,17.10
2019-03-22T15:13:42.536Z,17.00
2019-03-22T15:16:20.134Z,17.00
2019-03-22T15:18:56.133Z,16.90
2019-03-22T15:21:40.349Z,16.90
2019-03-22T15:24:18.285Z,16.80
2019-03-22T15:26:50.135Z,16.80
2019-03-22T15:29:25.090Z,16.70
2019-03-22T15:31:57.003Z,16.70
2019-03-22T15:34:37.831Z,16.60
2019-03-22T15:37:26.255Z,16.50
2019-03-22T15:39:58.224Z,16.50
2019-03-22T15:42:28.864Z,16.40
2019-03-22T15:44:59.383Z,16.30
2019-03-22T15:47:29.861Z,16.20
2019-03-22T15:50:00.333Z,16.20
2019-03-22T15:52:30.640Z,16.10
2019-03-22T15:55:00.905Z,16.00
2019-03-22T15:57:31.081Z,16.00
2019-03-22T16:00:01.344Z,15.90
2019-03-22T16:02:31.604Z,15.80
2019-03-22T16:05:01.793Z,15.80
2019-03-22T16:07:32.172Z,15.70
2019-03-22T16:10:02.408Z,15.70
2019-03-22T16:12:34.101Z,15.60
2019-03-22T16:15:12.443Z,15.60
2019-03-22T16:17:42.728Z,15.50
2019-03-22T16:20:15.250Z,15.40
2019-03-22T16:22:45.553Z,15.30
2019-03-22T16:25:15.982Z,15.20
2019-03-22T16:27:46.184Z,15.20
2019-03-22T16:30:16.614Z,15.10
2019-03-22T16:32:46.860Z,15.00
2019-03-22T16:35:17.212Z,15.00
2019-03-22T16:37:47.540Z,14.90
2019-03-22T16:40:24.134Z,14.80
2019-03-22T16:42:49.991Z,14.80
2019-03-22T16:45:37.236Z,14.80
2019-03-22T16:48:07.769Z,14.70
2019-03-22T16:50:38.220Z,14.60
2019-03-22T16:53:08.498Z,14.60
2019-03-22T16:55:38.674Z,14.50
2019-03-22T16:58:08.936Z,14.40
2019-03-22T17:00:39.840Z,14.30
2019-03-22T17:03:10.040Z,14.30
2019-03-22T17:05:40.228Z,14.20
2019-03-22T17:08:10.428Z,14.20
2019-03-22T17:10:40.624Z,14.10
2019-03-22T17:13:10.840Z,14.00
2019-03-22T17:15:41.037Z,13.90
2019-03-22T17:18:11.325Z,13.90
2019-03-22T17:20:41.585Z,13.80
2019-03-22T17:23:12.164Z,13.80
2019-03-22T17:25:42.572Z,13.70
2019-03-22T17:28:12.755Z,13.70
2019-03-22T17:30:42.972Z,13.60
2019-03-22T17:33:13.144Z,13.60
2019-03-22T17:35:43.720Z,13.60
2019-03-22T17:38:13.897Z,13.50
2019-03-22T17:40:44.310Z,13.50
2019-03-22T17:43:14.584Z,13.40
2019-03-22T17:45:44.796Z,13.40
2019-03-22T17:48:14.972Z,13.30
2019-03-22T17:50:45.181Z,13.30
2019-03-22T17:53:15.345Z,13.20
2019-03-22T17:55:45.839Z,13.20
2019-03-22T17:58:16.027Z,13.00
2019-03-22T18:00:47.019Z,12.90
2019-03-22T18:03:17.207Z,12.80
2019-03-22T18:05:47.526Z,12.70
2019-03-22T18:08:18.324Z,12.70
2019-03-22T18:10:48.543Z,12.60
2019-03-22T18:13:18.740Z,12.50
2019-03-22T18:15:48.956Z,12.40
2019-03-22T18:18:19.141Z,12.30
2019-03-22T18:20:49.552Z,12.20
2019-03-22T18:23:19.836Z,12.20
2019-03-22T18:25:50.272Z,12.10
2019-03-22T18:28:20.457Z,12.00
2019-03-22T18:30:50.659Z,11.90
2019-03-22T18:33:20.843Z,11.90
2019-03-22T18:35:51.044Z,11.80
2019-03-22T18:38:21.227Z,11.70
2019-03-22T18:40:51.640Z,11.70
2019-03-22T18:43:21.820Z,11.60
2019-03-22T18:45:52.120Z,11.50
2019-03-22T18:48:22.588Z,11.50
2019-03-22T18:50:56.963Z,11.40
2019-03-22T18:53:24.603Z,11.40
2019-03-22T18:55:54.808Z,11.30
2019-03-22T18:58:25.084Z,11.30
2019-03-22T19:00:55.896Z,11.20
2019-03-22T19:03:26.129Z,11.10
2019-03-22T19:05:56.444Z,11.10
2019-03-22T19:08:26.651Z,11.00
2019-03-22T19:10:57.353Z,10.90
2019-03-22T19:13:30.906Z,10.80
2019-03-22T19:15:59.924Z,10.80
2019-03-22T19:18:30.097Z,10.70
2019-03-22T19:21:00.556Z,10.60
2019-03-22T19:23:31.447Z,10.60
2019-03-22T19:26:01.656Z,10.60
2019-03-22T19:28:31.833Z,10.60
2019-03-22T19:31:02.240Z,10.60
2019-03-22T19:33:32.424Z,10.50
2019-03-22T19:36:02.910Z,10.50
2019-03-22T19:38:33.204Z,10.40
2019-03-22T19:41:03.759Z,10.40
2019-03-22T19:43:33.976Z,10.30
2019-03-22T19:46:04.641Z,10.20
2019-03-22T19:48:34.829Z,10.00
2019-03-22T19:51:05.092Z,9.60
2019-03-22T19:53:35.283Z,9.60
2019-03-22T19:56:06.484Z,9.60
2019-03-22T19:58:36.773Z,9.50
2019-03-22T20:01:07.079Z,9.50
2019-03-22T20:03:37.333Z,9.40
2019-03-22T20:06:07.540Z,9.30
2019-03-22T20:08:37.927Z,9.30
2019-03-22T20:11:08.353Z,9.10
2019-03-22T20:13:38.548Z,9.10
2019-03-22T20:16:09.536Z,9.10
2019-03-22T20:18:39.828Z,9.00
2019-03-22T20:21:10.239Z,9.00
2019-03-22T20:23:40.474Z,9.00
2019-03-22T20:26:10.644Z,8.90
2019-03-22T20:28:40.923Z,9.00
2019-03-22T20:31:11.132Z,9.00
2019-03-22T20:33:41.320Z,8.90
2019-03-22T20:36:11.533Z,8.90
2019-03-22T20:38:41.711Z,8.90
2019-03-22T20:41:11.920Z,8.90
2019-03-22T20:43:42.215Z,8.90
2019-03-22T20:46:12.529Z,8.80
2019-03-22T20:48:43.011Z,8.80
2019-03-22T20:51:13.396Z,8.80
2019-03-22T20:53:43.682Z,8.70
2019-03-22T20:56:15.487Z,8.70
2019-03-22T20:58:45.672Z,8.60
2019-03-22T21:01:16.352Z,8.60
2019-03-22T21:03:46.738Z,8.60
2019-03-22T21:06:17.258Z,8.50
2019-03-22T21:08:47.446Z,8.50
2019-03-22T21:11:17.660Z,8.50
2019-03-22T21:13:47.849Z,8.40
2019-03-22T21:16:18.858Z,8.40
2019-03-22T21:18:49.142Z,8.40
2019-03-22T21:21:19.648Z,8.30
2019-03-22T21:23:50.438Z,8.30
2019-03-22T21:26:20.724Z,8.30
2019-03-22T21:28:50.913Z,8.30
2019-03-22T21:31:21.125Z,8.20
2019-03-22T21:33:51.442Z,8.20
2019-03-22T21:36:21.640Z,8.10
2019-03-22T21:38:51.825Z,8.10
2019-03-22T21:41:22.144Z,8.10
2019-03-22T21:43:52.635Z,8.10
2019-03-22T21:46:22.957Z,8.10
2019-03-22T21:48:53.240Z,8.00
2019-03-22T21:51:23.557Z,8.00
2019-03-22T21:53:53.968Z,7.90
2019-03-22T21:56:24.156Z,7.90
2019-03-22T21:58:54.504Z,7.90
2019-03-22T22:01:24.783Z,7.90
2019-03-22T22:03:55.008Z,7.90
2019-03-22T22:06:25.192Z,7.80
2019-03-22T22:08:55.403Z,7.70
2019-03-22T22:11:25.794Z,7.70
2019-03-22T22:13:56.307Z,7.70
2019-03-22T22:16:26.500Z,7.70
2019-03-22T22:18:56.907Z,7.70
2019-03-22T22:21:27.200Z,7.70
2019-03-22T22:23:57.404Z,7.80
2019-03-22T22:26:27.591Z,7.70
2019-03-22T22:28:57.803Z,7.70
2019-03-22T22:31:27.992Z,7.70
2019-03-22T22:33:58.392Z,7.70
2019-03-22T22:36:28.676Z,7.70
2019-03-22T22:38:58.884Z,7.80
2019-03-22T22:41:29.773Z,7.70
2019-03-22T22:44:00.083Z,7.70
2019-03-22T22:46:30.274Z,7.70
2019-03-22T22:49:00.656Z,7.70
2019-03-22T22:51:30.831Z,7.60
2019-03-22T22:54:01.214Z,7.60
2019-03-22T22:56:31.496Z,7.60
2019-03-22T22:59:01.724Z,7.50
2019-03-22T23:01:31.982Z,7.40
2019-03-22T23:04:02.213Z,7.40
2019-03-22T23:06:32.500Z,7.30
2019-03-22T23:09:02.701Z,7.30
2019-03-22T23:11:32.982Z,7.30
2019-03-22T23:14:03.188Z,7.20
2019-03-22T23:16:33.476Z,7.20
2019-03-22T23:19:03.676Z,7.10
2019-03-22T23:21:33.856Z,7.10
2019-03-22T23:24:04.243Z,7.10
2019-03-22T23:26:34.539Z,7.00
2019-03-22T23:29:04.943Z,6.90
2019-03-22T23:31:35.235Z,7.00
2019-03-22T23:34:05.457Z,7.00
2019-03-22T23:36:35.699Z,7.00
2019-03-22T23:39:07.568Z,6.90
2019-03-22T23:41:37.760Z,6.90
2019-03-22T23:44:07.976Z,6.80
2019-03-22T23:46:38.500Z,6.80
2019-03-22T23:49:08.716Z,6.80
2019-03-22T23:51:39.121Z,6.70
2019-03-22T23:54:10.780Z,6.80
2019-03-22T23:56:41.002Z,6.70
2019-03-22T23:59:11.295Z,6.70
